sensor_id;sensor_type;location;lat;lon;timestamp;temperature;humidity
7204;DHT22;3643;52.460;13.322;2023-01-09T00:01:27;5.20;99.90
7204;DHT22;3643;52.460;13.322;2023-01-09T00:03:55;5.10;99.90
7204;DHT22;3643;52.460;13.322;2023-01-09T00:06:23;5.10;99.90
7204;DHT22;3643;52.460;13.322;2023-01-09T00:08:51;5.10;99.90
7204;DHT22;3643;52.460;13.322;2023-01-09T00:11:19;5.10;99.90
7204;DHT22;3643;52.460;13.322;2023-01-09T00:13:49;5.10;99.90
7204;DHT22;3643;52.460;13.322;2023-01-09T00:16:17;5.00;99.90
7204;DHT22;3643;52.460;13.322;2023-01-09T00:18:45;5.00;99.90
7204;DHT22;3643;52.460;13.322;2023-01-09T00:21:13;5.00;99.90
7204;DHT22;3643;52.460;13.322;2023-01-09T00:23:42;4.90;99.90
7204;DHT22;3643;52.460;13.322;2023-01-09T00:26:12;4.80;99.90
7204;DHT22;3643;52.460;13.322;2023-01-09T00:28:40;4.80;99.90
7204;DHT22;3643;52.460;13.322;2023-01-09T00:31:10;4.80;99.90
7204;DHT22;3643;52.460;13.322;2023-01-09T00:33:41;4.70;99.90
7204;DHT22;3643;52.460;13.322;2023-01-09T00:36:10;4.70;99.90
7204;DHT22;3643;52.460;13.322;2023-01-09T00:38:39;4.70;99.90
7204;DHT22;3643;52.460;13.322;2023-01-09T00:41:15;4.70;99.90
7204;DHT22;3643;52.460;13.322;2023-01-09T00:43:47;4.70;99.90
7204;DHT22;3643;52.460;13.322;2023-01-09T00:46:20;4.60;99.90
7204;DHT22;3643;52.460;13.322;2023-01-09T00:48:51;4.60;99.90
7204;DHT22;3643;52.460;13.322;2023-01-09T00:51:20;4.60;99.90
7204;DHT22;3643;52.460;13.322;2023-01-09T00:53:49;4.50;99.90
7204;DHT22;3643;52.460;13.322;2023-01-09T00:56:19;4.60;99.90
7204;DHT22;3643;52.460;13.322;2023-01-09T00:58:48;4.50;99.90
7204;DHT22;3643;52.460;13.322;2023-01-09T01:01:20;4.40;99.90
7204;DHT22;3643;52.460;13.322;2023-01-09T01:03:48;4.50;99.90
7204;DHT22;3643;52.460;13.322;2023-01-09T01:06:17;4.50;99.90
7204;DHT22;3643;52.460;13.322;2023-01-09T01:09:02;4.40;99.90
7204;DHT22;3643;52.460;13.322;2023-01-09T01:11:32;4.40;99.90
7204;DHT22;3643;52.460;13.322;2023-01-09T01:14:01;4.40;99.90
7204;DHT22;3643;52.460;13.322;2023-01-09T01:16:31;4.40;99.90
7204;DHT22;3643;52.460;13.322;2023-01-09T01:19:00;4.50;99.90
7204;DHT22;3643;52.460;13.322;2023-01-09T01:21:28;4.50;99.90
7204;DHT22;3643;52.460;13.322;2023-01-09T01:23:57;4.50;99.90
7204;DHT22;3643;52.460;13.322;2023-01-09T01:26:25;4.40;99.90
7204;DHT22;3643;52.460;13.322;2023-01-09T01:28:54;4.40;99.90
7204;DHT22;3643;52.460;13.322;2023-01-09T01:31:22;4.30;99.90
7204;DHT22;3643;52.460;13.322;2023-01-09T01:33:52;4.30;99.90
7204;DHT22;3643;52.460;13.322;2023-01-09T01:36:20;4.20;99.90
7204;DHT22;3643;52.460;13.322;2023-01-09T01:38:48;4.20;99.90
7204;DHT22;3643;52.460;13.322;2023-01-09T01:41:17;4.20;99.90
7204;DHT22;3643;52.460;13.322;2023-01-09T01:43:57;4.20;99.90
7204;DHT22;3643;52.460;13.322;2023-01-09T01:46:26;4.10;99.90
7204;DHT22;3643;52.460;13.322;2023-01-09T01:49:00;4.10;99.90
7204;DHT22;3643;52.460;13.322;2023-01-09T01:51:31;4.10;99.90
7204;DHT22;3643;52.460;13.322;2023-01-09T01:54:04;4.00;99.90
7204;DHT22;3643;52.460;13.322;2023-01-09T01:56:36;4.10;99.90
7204;DHT22;3643;52.460;13.322;2023-01-09T01:59:10;4.00;99.90
7204;DHT22;3643;52.460;13.322;2023-01-09T02:01:44;4.00;99.90
7204;DHT22;3643;52.460;13.322;2023-01-09T02:04:16;4.00;99.90
7204;DHT22;3643;52.460;13.322;2023-01-09T02:06:47;4.00;99.90
7204;DHT22;3643;52.460;13.322;2023-01-09T02:09:17;4.00;99.90
7204;DHT22;3643;52.460;13.322;2023-01-09T02:11:53;4.00;99.90
7204;DHT22;3643;52.460;13.322;2023-01-09T02:14:24;4.00;99.90
7204;DHT22;3643;52.460;13.322;2023-01-09T02:16:58;4.00;99.90
7204;DHT22;3643;52.460;13.322;2023-01-09T02:20:07;4.10;99.90
7204;DHT22;3643;52.460;13.322;2023-01-09T02:22:54;4.10;99.90
7204;DHT22;3643;52.460;13.322;2023-01-09T02:25:43;4.00;99.90
7204;DHT22;3643;52.460;13.322;2023-01-09T02:28:43;4.00;99.90
7204;DHT22;3643;52.460;13.322;2023-01-09T02:31:26;4.00;99.90
7204;DHT22;3643;52.460;13.322;2023-01-09T02:34:00;4.00;99.90
7204;DHT22;3643;52.460;13.322;2023-01-09T02:36:32;4.00;99.90
7204;DHT22;3643;52.460;13.322;2023-01-09T02:39:13;3.90;99.90
7204;DHT22;3643;52.460;13.322;2023-01-09T02:41:48;3.90;99.90
7204;DHT22;3643;52.460;13.322;2023-01-09T02:44:23;3.90;99.90
7204;DHT22;3643;52.460;13.322;2023-01-09T02:47:04;3.90;99.90
7204;DHT22;3643;52.460;13.322;2023-01-09T02:49:34;3.90;99.90
7204;DHT22;3643;52.460;13.322;2023-01-09T02:52:16;3.80;99.90
7204;DHT22;3643;52.460;13.322;2023-01-09T02:54:53;3.80;99.90
7204;DHT22;3643;52.460;13.322;2023-01-09T02:57:39;3.80;99.90
7204;DHT22;3643;52.460;13.322;2023-01-09T03:00:21;3.80;99.90
7204;DHT22;3643;52.460;13.322;2023-01-09T03:03:02;3.70;99.90
7204;DHT22;3643;52.460;13.322;2023-01-09T03:05:39;3.70;99.90
7204;DHT22;3643;52.460;13.322;2023-01-09T03:08:13;3.70;99.90
7204;DHT22;3643;52.460;13.322;2023-01-09T03:10:47;3.70;99.90
7204;DHT22;3643;52.460;13.322;2023-01-09T03:13:18;3.70;99.90
7204;DHT22;3643;52.460;13.322;2023-01-09T03:15:51;3.70;99.90
7204;DHT22;3643;52.460;13.322;2023-01-09T03:18:24;3.90;99.90
7204;DHT22;3643;52.460;13.322;2023-01-09T03:20:54;3.70;99.90
7204;DHT22;3643;52.460;13.322;2023-01-09T03:23:23;3.70;99.90
7204;DHT22;3643;52.460;13.322;2023-01-09T03:25:51;3.80;99.90
7204;DHT22;3643;52.460;13.322;2023-01-09T03:28:25;3.80;99.90
7204;DHT22;3643;52.460;13.322;2023-01-09T03:30:55;3.90;99.90
7204;DHT22;3643;52.460;13.322;2023-01-09T03:33:25;4.00;99.90
7204;DHT22;3643;52.460;13.322;2023-01-09T03:35:54;4.00;99.90
7204;DHT22;3643;52.460;13.322;2023-01-09T03:38:23;4.10;99.90
7204;DHT22;3643;52.460;13.322;2023-01-09T03:40:51;4.20;99.90
7204;DHT22;3643;52.460;13.322;2023-01-09T03:43:20;4.20;99.90
7204;DHT22;3643;52.460;13.322;2023-01-09T03:45:48;4.30;99.90
7204;DHT22;3643;52.460;13.322;2023-01-09T03:48:16;4.30;99.90
7204;DHT22;3643;52.460;13.322;2023-01-09T03:50:47;4.30;99.90
7204;DHT22;3643;52.460;13.322;2023-01-09T03:53:16;4.40;99.90
7204;DHT22;3643;52.460;13.322;2023-01-09T03:55:46;4.40;99.90
7204;DHT22;3643;52.460;13.322;2023-01-09T03:58:16;4.50;99.90
7204;DHT22;3643;52.460;13.322;2023-01-09T04:00:45;4.50;99.90
7204;DHT22;3643;52.460;13.322;2023-01-09T04:03:16;4.50;99.90
7204;DHT22;3643;52.460;13.322;2023-01-09T04:05:47;4.50;99.90
7204;DHT22;3643;52.460;13.322;2023-01-09T04:08:17;4.60;99.90
7204;DHT22;3643;52.460;13.322;2023-01-09T04:10:45;4.60;99.90
7204;DHT22;3643;52.460;13.322;2023-01-09T04:13:14;4.60;99.90
7204;DHT22;3643;52.460;13.322;2023-01-09T04:15:43;4.60;99.90
7204;DHT22;3643;52.460;13.322;2023-01-09T04:18:12;4.70;99.90
7204;DHT22;3643;52.460;13.322;2023-01-09T04:20:40;4.70;99.90
7204;DHT22;3643;52.460;13.322;2023-01-09T04:23:10;4.70;99.90
7204;DHT22;3643;52.460;13.322;2023-01-09T04:25:39;4.70;99.90
7204;DHT22;3643;52.460;13.322;2023-01-09T04:28:07;4.70;99.90
7204;DHT22;3643;52.460;13.322;2023-01-09T04:30:36;4.80;99.90
7204;DHT22;3643;52.460;13.322;2023-01-09T04:33:04;4.80;99.90
7204;DHT22;3643;52.460;13.322;2023-01-09T04:35:33;4.80;99.90
7204;DHT22;3643;52.460;13.322;2023-01-09T04:38:01;4.80;99.90
7204;DHT22;3643;52.460;13.322;2023-01-09T04:40:31;4.90;99.90
7204;DHT22;3643;52.460;13.322;2023-01-09T04:42:59;4.90;99.90
7204;DHT22;3643;52.460;13.322;2023-01-09T04:45:27;4.90;99.90
7204;DHT22;3643;52.460;13.322;2023-01-09T04:47:56;4.90;99.90
7204;DHT22;3643;52.460;13.322;2023-01-09T04:50:24;4.90;99.90
7204;DHT22;3643;52.460;13.322;2023-01-09T04:52:52;4.90;99.90
7204;DHT22;3643;52.460;13.322;2023-01-09T04:55:21;5.00;99.90
7204;DHT22;3643;52.460;13.322;2023-01-09T04:57:51;4.90;99.90
7204;DHT22;3643;52.460;13.322;2023-01-09T05:00:19;4.90;99.90
7204;DHT22;3643;52.460;13.322;2023-01-09T05:02:48;4.90;99.90
7204;DHT22;3643;52.460;13.322;2023-01-09T05:07:50;4.90;99.90
7204;DHT22;3643;52.460;13.322;2023-01-09T05:10:18;4.90;99.90
7204;DHT22;3643;52.460;13.322;2023-01-09T05:12:47;4.90;99.90
7204;DHT22;3643;52.460;13.322;2023-01-09T05:15:16;4.90;99.90
7204;DHT22;3643;52.460;13.322;2023-01-09T05:17:45;4.90;99.90
7204;DHT22;3643;52.460;13.322;2023-01-09T05:20:13;4.90;99.90
7204;DHT22;3643;52.460;13.322;2023-01-09T05:22:41;5.00;99.90
7204;DHT22;3643;52.460;13.322;2023-01-09T05:25:09;5.00;99.90
7204;DHT22;3643;52.460;13.322;2023-01-09T05:27:38;5.00;99.90
7204;DHT22;3643;52.460;13.322;2023-01-09T05:30:07;5.00;99.90
7204;DHT22;3643;52.460;13.322;2023-01-09T05:32:36;5.00;99.90
7204;DHT22;3643;52.460;13.322;2023-01-09T05:35:05;5.00;99.90
7204;DHT22;3643;52.460;13.322;2023-01-09T05:37:34;5.10;99.90
7204;DHT22;3643;52.460;13.322;2023-01-09T05:40:02;5.20;99.90
7204;DHT22;3643;52.460;13.322;2023-01-09T05:42:30;5.10;99.90
7204;DHT22;3643;52.460;13.322;2023-01-09T05:44:58;5.10;99.90
7204;DHT22;3643;52.460;13.322;2023-01-09T05:47:27;5.10;99.90
7204;DHT22;3643;52.460;13.322;2023-01-09T05:49:56;5.10;99.90
7204;DHT22;3643;52.460;13.322;2023-01-09T05:52:24;5.10;99.90
7204;DHT22;3643;52.460;13.322;2023-01-09T05:54:52;5.20;99.90
7204;DHT22;3643;52.460;13.322;2023-01-09T05:57:20;5.20;99.90
7204;DHT22;3643;52.460;13.322;2023-01-09T05:59:48;5.20;99.90
7204;DHT22;3643;52.460;13.322;2023-01-09T06:02:16;5.20;99.90
7204;DHT22;3643;52.460;13.322;2023-01-09T06:04:45;5.20;99.90
7204;DHT22;3643;52.460;13.322;2023-01-09T06:07:14;5.20;99.90
7204;DHT22;3643;52.460;13.322;2023-01-09T06:09:46;5.20;99.90
7204;DHT22;3643;52.460;13.322;2023-01-09T06:12:14;5.10;99.90
7204;DHT22;3643;52.460;13.322;2023-01-09T06:14:42;5.10;99.90
7204;DHT22;3643;52.460;13.322;2023-01-09T06:17:11;5.10;99.90
7204;DHT22;3643;52.460;13.322;2023-01-09T06:19:39;5.10;99.90
7204;DHT22;3643;52.460;13.322;2023-01-09T06:22:07;5.10;99.90
7204;DHT22;3643;52.460;13.322;2023-01-09T06:24:36;5.10;99.90
7204;DHT22;3643;52.460;13.322;2023-01-09T06:27:04;5.10;99.90
7204;DHT22;3643;52.460;13.322;2023-01-09T06:29:33;5.10;99.90
7204;DHT22;3643;52.460;13.322;2023-01-09T06:32:01;5.10;99.90
7204;DHT22;3643;52.460;13.322;2023-01-09T06:34:29;5.10;99.90
7204;DHT22;3643;52.460;13.322;2023-01-09T06:36:58;5.10;99.90
7204;DHT22;3643;52.460;13.322;2023-01-09T06:39:26;5.10;99.90
7204;DHT22;3643;52.460;13.322;2023-01-09T06:41:55;5.10;99.90
7204;DHT22;3643;52.460;13.322;2023-01-09T06:44:23;5.10;99.90
7204;DHT22;3643;52.460;13.322;2023-01-09T06:46:51;5.10;99.90
7204;DHT22;3643;52.460;13.322;2023-01-09T06:49:20;5.20;99.90
7204;DHT22;3643;52.460;13.322;2023-01-09T06:51:49;5.20;99.90
7204;DHT22;3643;52.460;13.322;2023-01-09T06:54:18;5.20;99.90
7204;DHT22;3643;52.460;13.322;2023-01-09T06:56:46;5.20;99.90
7204;DHT22;3643;52.460;13.322;2023-01-09T06:59:15;5.20;99.90
7204;DHT22;3643;52.460;13.322;2023-01-09T07:01:44;5.20;99.90
7204;DHT22;3643;52.460;13.322;2023-01-09T07:04:12;5.20;99.90
7204;DHT22;3643;52.460;13.322;2023-01-09T07:06:40;5.20;99.90
7204;DHT22;3643;52.460;13.322;2023-01-09T07:09:08;5.20;99.90
7204;DHT22;3643;52.460;13.322;2023-01-09T07:11:39;5.20;99.90
7204;DHT22;3643;52.460;13.322;2023-01-09T07:14:07;5.20;99.90
7204;DHT22;3643;52.460;13.322;2023-01-09T07:16:36;5.20;99.90
7204;DHT22;3643;52.460;13.322;2023-01-09T07:19:04;5.20;99.90
7204;DHT22;3643;52.460;13.322;2023-01-09T07:21:33;5.30;99.90
7204;DHT22;3643;52.460;13.322;2023-01-09T07:24:01;5.20;99.90
7204;DHT22;3643;52.460;13.322;2023-01-09T07:26:29;5.20;99.90
7204;DHT22;3643;52.460;13.322;2023-01-09T07:28:57;5.30;99.90
7204;DHT22;3643;52.460;13.322;2023-01-09T07:31:25;5.30;99.90
7204;DHT22;3643;52.460;13.322;2023-01-09T07:33:54;5.20;99.90
7204;DHT22;3643;52.460;13.322;2023-01-09T07:36:22;5.20;99.90
7204;DHT22;3643;52.460;13.322;2023-01-09T07:38:50;5.20;99.90
7204;DHT22;3643;52.460;13.322;2023-01-09T07:41:19;5.30;99.90
7204;DHT22;3643;52.460;13.322;2023-01-09T07:43:47;5.30;99.90
7204;DHT22;3643;52.460;13.322;2023-01-09T07:46:15;5.30;99.90
7204;DHT22;3643;52.460;13.322;2023-01-09T07:48:43;5.30;99.90
7204;DHT22;3643;52.460;13.322;2023-01-09T07:51:13;5.30;99.90
7204;DHT22;3643;52.460;13.322;2023-01-09T07:53:41;5.30;99.90
7204;DHT22;3643;52.460;13.322;2023-01-09T07:56:09;5.30;99.90
7204;DHT22;3643;52.460;13.322;2023-01-09T07:58:38;5.30;99.90
7204;DHT22;3643;52.460;13.322;2023-01-09T08:01:06;5.30;99.90
7204;DHT22;3643;52.460;13.322;2023-01-09T08:03:34;5.40;99.90
7204;DHT22;3643;52.460;13.322;2023-01-09T08:06:04;5.40;99.90
7204;DHT22;3643;52.460;13.322;2023-01-09T08:08:33;5.40;99.90
7204;DHT22;3643;52.460;13.322;2023-01-09T08:11:01;5.40;99.90
7204;DHT22;3643;52.460;13.322;2023-01-09T08:13:30;5.40;99.90
7204;DHT22;3643;52.460;13.322;2023-01-09T08:15:58;5.50;99.90
7204;DHT22;3643;52.460;13.322;2023-01-09T08:18:26;5.50;99.90
7204;DHT22;3643;52.460;13.322;2023-01-09T08:20:54;5.60;99.90
7204;DHT22;3643;52.460;13.322;2023-01-09T08:23:22;5.50;99.90
7204;DHT22;3643;52.460;13.322;2023-01-09T08:25:53;5.50;99.90
7204;DHT22;3643;52.460;13.322;2023-01-09T08:28:21;5.50;99.90
7204;DHT22;3643;52.460;13.322;2023-01-09T08:30:49;5.50;99.90
7204;DHT22;3643;52.460;13.322;2023-01-09T08:33:17;5.60;99.90
7204;DHT22;3643;52.460;13.322;2023-01-09T08:35:45;5.60;99.90
7204;DHT22;3643;52.460;13.322;2023-01-09T08:38:13;5.60;99.90
7204;DHT22;3643;52.460;13.322;2023-01-09T08:40:41;5.70;99.90
7204;DHT22;3643;52.460;13.322;2023-01-09T08:43:11;5.70;99.90
7204;DHT22;3643;52.460;13.322;2023-01-09T08:45:57;5.90;99.90
7204;DHT22;3643;52.460;13.322;2023-01-09T08:48:42;5.80;99.90
7204;DHT22;3643;52.460;13.322;2023-01-09T08:51:10;5.80;99.90
7204;DHT22;3643;52.460;13.322;2023-01-09T08:53:38;5.80;99.90
7204;DHT22;3643;52.460;13.322;2023-01-09T08:56:07;5.80;99.90
7204;DHT22;3643;52.460;13.322;2023-01-09T08:58:37;5.70;99.90
7204;DHT22;3643;52.460;13.322;2023-01-09T09:01:05;5.70;99.90
7204;DHT22;3643;52.460;13.322;2023-01-09T09:03:34;5.70;99.90
7204;DHT22;3643;52.460;13.322;2023-01-09T09:06:02;5.60;99.90
7204;DHT22;3643;52.460;13.322;2023-01-09T09:08:35;5.70;99.90
7204;DHT22;3643;52.460;13.322;2023-01-09T09:11:03;5.70;99.90
7204;DHT22;3643;52.460;13.322;2023-01-09T09:13:31;5.70;99.90
7204;DHT22;3643;52.460;13.322;2023-01-09T09:16:00;5.70;99.90
7204;DHT22;3643;52.460;13.322;2023-01-09T09:18:29;5.70;99.90
7204;DHT22;3643;52.460;13.322;2023-01-09T09:20:57;5.70;99.90
7204;DHT22;3643;52.460;13.322;2023-01-09T09:23:25;5.80;99.90
7204;DHT22;3643;52.460;13.322;2023-01-09T09:25:53;5.80;99.90
7204;DHT22;3643;52.460;13.322;2023-01-09T09:28:21;5.80;99.90
7204;DHT22;3643;52.460;13.322;2023-01-09T09:30:49;5.90;99.90
7204;DHT22;3643;52.460;13.322;2023-01-09T09:33:19;5.90;99.90
7204;DHT22;3643;52.460;13.322;2023-01-09T09:35:47;5.90;99.90
7204;DHT22;3643;52.460;13.322;2023-01-09T09:38:15;6.00;99.90
7204;DHT22;3643;52.460;13.322;2023-01-09T09:44:10;6.10;99.90
7204;DHT22;3643;52.460;13.322;2023-01-09T09:47:10;6.20;99.90
7204;DHT22;3643;52.460;13.322;2023-01-09T09:49:51;6.10;99.90
7204;DHT22;3643;52.460;13.322;2023-01-09T09:52:29;6.20;99.90
7204;DHT22;3643;52.460;13.322;2023-01-09T09:55:06;6.30;99.90
7204;DHT22;3643;52.460;13.322;2023-01-09T09:57:39;6.40;99.90
7204;DHT22;3643;52.460;13.322;2023-01-09T10:00:15;6.50;99.90
7204;DHT22;3643;52.460;13.322;2023-01-09T10:02:46;6.50;99.90
7204;DHT22;3643;52.460;13.322;2023-01-09T10:05:24;6.50;99.90
7204;DHT22;3643;52.460;13.322;2023-01-09T10:07:56;6.60;99.90
7204;DHT22;3643;52.460;13.322;2023-01-09T10:10:45;6.70;99.90
7204;DHT22;3643;52.460;13.322;2023-01-09T10:13:17;6.70;99.90
7204;DHT22;3643;52.460;13.322;2023-01-09T10:16:12;6.80;99.90
7204;DHT22;3643;52.460;13.322;2023-01-09T10:18:52;6.90;99.90
7204;DHT22;3643;52.460;13.322;2023-01-09T10:21:28;7.00;99.90
7204;DHT22;3643;52.460;13.322;2023-01-09T10:24:19;7.10;99.90
7204;DHT22;3643;52.460;13.322;2023-01-09T10:26:51;7.10;99.90
7204;DHT22;3643;52.460;13.322;2023-01-09T10:29:36;7.00;99.90
7204;DHT22;3643;52.460;13.322;2023-01-09T10:32:20;7.10;99.90
7204;DHT22;3643;52.460;13.322;2023-01-09T10:35:01;7.10;99.90
7204;DHT22;3643;52.460;13.322;2023-01-09T10:37:37;7.10;99.90
7204;DHT22;3643;52.460;13.322;2023-01-09T10:40:15;7.00;99.90
7204;DHT22;3643;52.460;13.322;2023-01-09T10:42:47;7.10;99.90
7204;DHT22;3643;52.460;13.322;2023-01-09T10:45:19;7.00;99.90
7204;DHT22;3643;52.460;13.322;2023-01-09T10:47:52;7.10;99.90
7204;DHT22;3643;52.460;13.322;2023-01-09T10:50:25;7.10;99.90
7204;DHT22;3643;52.460;13.322;2023-01-09T10:52:56;7.10;99.90
7204;DHT22;3643;52.460;13.322;2023-01-09T10:55:30;7.20;99.90
7204;DHT22;3643;52.460;13.322;2023-01-09T10:58:09;7.20;99.90
7204;DHT22;3643;52.460;13.322;2023-01-09T11:00:38;7.20;99.90
7204;DHT22;3643;52.460;13.322;2023-01-09T11:03:11;7.30;99.90
7204;DHT22;3643;52.460;13.322;2023-01-09T11:05:40;7.30;99.90
7204;DHT22;3643;52.460;13.322;2023-01-09T11:08:18;7.20;99.90
7204;DHT22;3643;52.460;13.322;2023-01-09T11:10:51;7.20;99.90
7204;DHT22;3643;52.460;13.322;2023-01-09T11:13:20;7.30;99.90
7204;DHT22;3643;52.460;13.322;2023-01-09T11:16:06;7.30;99.90
7204;DHT22;3643;52.460;13.322;2023-01-09T11:18:37;7.30;99.90
7204;DHT22;3643;52.460;13.322;2023-01-09T11:21:23;7.30;99.90
7204;DHT22;3643;52.460;13.322;2023-01-09T11:23:54;7.30;99.90
7204;DHT22;3643;52.460;13.322;2023-01-09T11:26:24;7.30;99.90
7204;DHT22;3643;52.460;13.322;2023-01-09T11:29:05;7.30;99.90
7204;DHT22;3643;52.460;13.322;2023-01-09T11:31:34;7.30;99.90
7204;DHT22;3643;52.460;13.322;2023-01-09T11:34:02;7.30;99.90
7204;DHT22;3643;52.460;13.322;2023-01-09T11:36:31;7.30;99.90
7204;DHT22;3643;52.460;13.322;2023-01-09T11:39:00;7.20;99.90
7204;DHT22;3643;52.460;13.322;2023-01-09T11:41:31;7.20;99.90
7204;DHT22;3643;52.460;13.322;2023-01-09T11:44:03;7.20;99.90
7204;DHT22;3643;52.460;13.322;2023-01-09T11:46:34;7.30;99.90
7204;DHT22;3643;52.460;13.322;2023-01-09T11:49:19;7.40;99.90
7204;DHT22;3643;52.460;13.322;2023-01-09T11:52:10;7.40;99.90
7204;DHT22;3643;52.460;13.322;2023-01-09T11:54:44;7.40;99.90
7204;DHT22;3643;52.460;13.322;2023-01-09T11:57:14;7.30;99.90
7204;DHT22;3643;52.460;13.322;2023-01-09T11:59:42;7.40;99.90
7204;DHT22;3643;52.460;13.322;2023-01-09T12:02:40;7.40;99.90
7204;DHT22;3643;52.460;13.322;2023-01-09T12:05:23;7.30;99.90
7204;DHT22;3643;52.460;13.322;2023-01-09T12:08:25;7.10;99.90
7204;DHT22;3643;52.460;13.322;2023-01-09T12:11:17;7.10;99.90
7204;DHT22;3643;52.460;13.322;2023-01-09T12:17:25;7.20;99.90
7204;DHT22;3643;52.460;13.322;2023-01-09T12:20:18;7.30;99.90
7204;DHT22;3643;52.460;13.322;2023-01-09T12:22:54;7.30;99.90
7204;DHT22;3643;52.460;13.322;2023-01-09T12:25:36;7.20;99.90
7204;DHT22;3643;52.460;13.322;2023-01-09T12:31:19;7.20;99.90
7204;DHT22;3643;52.460;13.322;2023-01-09T12:33:57;7.10;99.90
7204;DHT22;3643;52.460;13.322;2023-01-09T12:36:35;7.10;99.90
7204;DHT22;3643;52.460;13.322;2023-01-09T12:39:19;7.00;99.90
7204;DHT22;3643;52.460;13.322;2023-01-09T12:42:06;7.00;99.90
7204;DHT22;3643;52.460;13.322;2023-01-09T12:44:48;7.00;99.90
7204;DHT22;3643;52.460;13.322;2023-01-09T12:47:42;7.00;99.90
7204;DHT22;3643;52.460;13.322;2023-01-09T12:50:34;7.00;99.90
7204;DHT22;3643;52.460;13.322;2023-01-09T12:53:13;7.10;99.90
7204;DHT22;3643;52.460;13.322;2023-01-09T12:55:46;7.10;99.90
7204;DHT22;3643;52.460;13.322;2023-01-09T12:58:26;7.10;99.90
7204;DHT22;3643;52.460;13.322;2023-01-09T13:00:58;7.30;99.90
7204;DHT22;3643;52.460;13.322;2023-01-09T13:03:31;7.40;99.90
7204;DHT22;3643;52.460;13.322;2023-01-09T13:06:02;7.40;99.90
7204;DHT22;3643;52.460;13.322;2023-01-09T13:08:36;7.40;99.90
7204;DHT22;3643;52.460;13.322;2023-01-09T13:11:09;7.40;99.90
7204;DHT22;3643;52.460;13.322;2023-01-09T13:13:48;7.40;99.90
7204;DHT22;3643;52.460;13.322;2023-01-09T13:16:25;7.30;99.90
7204;DHT22;3643;52.460;13.322;2023-01-09T13:18:58;7.30;99.90
7204;DHT22;3643;52.460;13.322;2023-01-09T13:21:28;7.30;99.90
7204;DHT22;3643;52.460;13.322;2023-01-09T13:24:02;7.30;99.90
7204;DHT22;3643;52.460;13.322;2023-01-09T13:26:35;7.20;99.90
7204;DHT22;3643;52.460;13.322;2023-01-09T13:29:09;7.10;99.90
7204;DHT22;3643;52.460;13.322;2023-01-09T13:32:04;7.10;99.90
7204;DHT22;3643;52.460;13.322;2023-01-09T13:34:36;7.00;99.90
7204;DHT22;3643;52.460;13.322;2023-01-09T13:37:18;6.90;99.90
7204;DHT22;3643;52.460;13.322;2023-01-09T13:39:55;6.90;99.90
7204;DHT22;3643;52.460;13.322;2023-01-09T13:42:24;6.90;99.90
7204;DHT22;3643;52.460;13.322;2023-01-09T13:45:20;6.90;99.90
7204;DHT22;3643;52.460;13.322;2023-01-09T13:48:30;6.90;99.90
7204;DHT22;3643;52.460;13.322;2023-01-09T13:54:08;6.80;99.90
7204;DHT22;3643;52.460;13.322;2023-01-09T13:59:34;6.60;99.90
7204;DHT22;3643;52.460;13.322;2023-01-09T14:02:02;6.60;99.90
7204;DHT22;3643;52.460;13.322;2023-01-09T14:04:43;6.60;99.90
7204;DHT22;3643;52.460;13.322;2023-01-09T14:07:19;6.70;99.90
7204;DHT22;3643;52.460;13.322;2023-01-09T14:09:54;6.80;99.90
7204;DHT22;3643;52.460;13.322;2023-01-09T14:12:24;6.80;99.90
7204;DHT22;3643;52.460;13.322;2023-01-09T14:14:55;6.90;99.90
7204;DHT22;3643;52.460;13.322;2023-01-09T14:17:30;6.90;99.90
7204;DHT22;3643;52.460;13.322;2023-01-09T14:20:02;6.90;99.90
7204;DHT22;3643;52.460;13.322;2023-01-09T14:22:32;6.90;99.90
7204;DHT22;3643;52.460;13.322;2023-01-09T14:25:24;6.90;99.90
7204;DHT22;3643;52.460;13.322;2023-01-09T14:31:05;6.90;99.90
7204;DHT22;3643;52.460;13.322;2023-01-09T14:33:34;6.90;99.90
7204;DHT22;3643;52.460;13.322;2023-01-09T14:36:11;7.00;99.90
7204;DHT22;3643;52.460;13.322;2023-01-09T14:38:42;7.00;99.90
7204;DHT22;3643;52.460;13.322;2023-01-09T14:41:20;7.00;99.90
7204;DHT22;3643;52.460;13.322;2023-01-09T14:44:21;7.00;99.90
7204;DHT22;3643;52.460;13.322;2023-01-09T14:46:52;7.00;99.90
7204;DHT22;3643;52.460;13.322;2023-01-09T14:49:30;7.10;99.90
7204;DHT22;3643;52.460;13.322;2023-01-09T14:52:08;7.00;99.90
7204;DHT22;3643;52.460;13.322;2023-01-09T14:54:41;7.00;99.90
7204;DHT22;3643;52.460;13.322;2023-01-09T14:57:24;7.00;99.90
7204;DHT22;3643;52.460;13.322;2023-01-09T14:59:56;7.00;99.90
7204;DHT22;3643;52.460;13.322;2023-01-09T15:02:27;7.00;99.90
7204;DHT22;3643;52.460;13.322;2023-01-09T15:05:00;7.00;99.90
7204;DHT22;3643;52.460;13.322;2023-01-09T15:07:35;6.90;99.90
7204;DHT22;3643;52.460;13.322;2023-01-09T15:10:10;6.90;99.90
7204;DHT22;3643;52.460;13.322;2023-01-09T15:12:43;6.80;99.90
7204;DHT22;3643;52.460;13.322;2023-01-09T15:15:14;6.70;99.90
7204;DHT22;3643;52.460;13.322;2023-01-09T15:17:45;6.70;99.90
7204;DHT22;3643;52.460;13.322;2023-01-09T15:20:17;6.70;99.90
7204;DHT22;3643;52.460;13.322;2023-01-09T15:22:49;6.70;99.90
7204;DHT22;3643;52.460;13.322;2023-01-09T15:25:23;6.70;99.90
7204;DHT22;3643;52.460;13.322;2023-01-09T15:28:22;6.80;99.90
7204;DHT22;3643;52.460;13.322;2023-01-09T15:30:57;6.80;99.90
7204;DHT22;3643;52.460;13.322;2023-01-09T15:33:27;6.90;99.90
7204;DHT22;3643;52.460;13.322;2023-01-09T15:35:56;6.90;99.90
7204;DHT22;3643;52.460;13.322;2023-01-09T15:38:31;7.00;99.90
7204;DHT22;3643;52.460;13.322;2023-01-09T15:41:07;7.00;99.90
7204;DHT22;3643;52.460;13.322;2023-01-09T15:43:40;7.00;99.90
7204;DHT22;3643;52.460;13.322;2023-01-09T15:46:09;7.00;99.90
7204;DHT22;3643;52.460;13.322;2023-01-09T15:48:38;7.00;99.90
7204;DHT22;3643;52.460;13.322;2023-01-09T15:51:09;7.00;99.90
7204;DHT22;3643;52.460;13.322;2023-01-09T15:53:41;7.00;99.90
7204;DHT22;3643;52.460;13.322;2023-01-09T15:56:15;7.00;99.90
7204;DHT22;3643;52.460;13.322;2023-01-09T15:58:46;7.00;99.90
7204;DHT22;3643;52.460;13.322;2023-01-09T16:01:36;7.00;99.90
7204;DHT22;3643;52.460;13.322;2023-01-09T16:04:08;7.00;99.90
7204;DHT22;3643;52.460;13.322;2023-01-09T16:06:42;7.00;99.90
7204;DHT22;3643;52.460;13.322;2023-01-09T16:09:17;7.00;99.90
7204;DHT22;3643;52.460;13.322;2023-01-09T16:11:50;7.10;99.90
7204;DHT22;3643;52.460;13.322;2023-01-09T16:14:21;7.10;99.90
7204;DHT22;3643;52.460;13.322;2023-01-09T16:16:51;7.10;99.90
7204;DHT22;3643;52.460;13.322;2023-01-09T16:19:29;7.10;99.90
7204;DHT22;3643;52.460;13.322;2023-01-09T16:21:59;7.10;99.90
7204;DHT22;3643;52.460;13.322;2023-01-09T16:24:36;7.10;99.90
7204;DHT22;3643;52.460;13.322;2023-01-09T16:27:27;7.10;99.90
7204;DHT22;3643;52.460;13.322;2023-01-09T16:29:57;7.10;99.90
7204;DHT22;3643;52.460;13.322;2023-01-09T16:32:28;8.00;99.90
7204;DHT22;3643;52.460;13.322;2023-01-09T16:34:59;6.90;99.90
7204;DHT22;3643;52.460;13.322;2023-01-09T16:37:31;6.80;99.90
7204;DHT22;3643;52.460;13.322;2023-01-09T16:40:28;6.70;99.90
7204;DHT22;3643;52.460;13.322;2023-01-09T16:42:59;6.60;99.90
7204;DHT22;3643;52.460;13.322;2023-01-09T16:45:29;6.40;99.90
7204;DHT22;3643;52.460;13.322;2023-01-09T16:47:59;6.30;99.90
7204;DHT22;3643;52.460;13.322;2023-01-09T16:50:27;6.20;99.90
7204;DHT22;3643;52.460;13.322;2023-01-09T16:52:57;6.20;99.90
7204;DHT22;3643;52.460;13.322;2023-01-09T16:55:27;6.10;99.90
7204;DHT22;3643;52.460;13.322;2023-01-09T16:57:56;6.10;99.90
7204;DHT22;3643;52.460;13.322;2023-01-09T17:00:24;6.10;99.90